الصفحة الرئيسية
METAR-TAF:

METAR-TAF

مطار :

مطار عبادان الدولي

عبادان, إيران

دائرة عرض: 30-22N, خط طول: 048-15E, ارتفاع: 3 متر

مراقبة الطقس الحالي

تاريخ ووقت الإصدار 35 دقيقة قبل الساعة 19:00UTC
ريح 4 عقدة من الغرب/الجنوب الغربي
درجة الحرارة 33°درجة مئوية
الرطوبة 24%
ضغط 999 hPa
الرؤية 10 كم أو أكثر
الغيوم لا تقل 1500 م ولا وجود لمزنة ركامية السحاب الأسود

METAR: OIAA 131900Z 25004KT CAVOK 33/10 Q0999

زمن: 00:05 (19:35 UTC)

توقعات

تاريخ ووقت الإصدار 2ساعات و 5 دقيقة قبل الساعة 17:30UTC
التوقعات صالحة من13 الساعة 18 UTC إلى 14 الساعة 24 UTC
ريح 8 عقدة من الشمال/الشمال الغربي
الرؤية: 8000 متر

TAF: OIAA 131730Z 1318/1424 33008KT 8000 NSC

أرصاد الطقس والتوقعات من أكثر من 4000 مطار (تقارير الطقس للمطار METAR والتنبؤ بالطقس بالمطارTAF).

المحطات المتاحة هي النقط الصفراء والحمراء على الخريطة.

حرك المؤشر فوق النقطة لمعرفة اسم المحطة.

ثم انقر لمعرفة أرصاد وتوقعات الطقس.

لتغيير الخارطة: اضغط على الأزرار الخضراء مع رمز الصليب الأسود للتكبير. على الزر الأخضر مع شرطة للتصغير، أو على الأسهم الخضراء للخرائط المجاورة.


METAR-TAF: